createdAt,value
2023-01-19T00:00:10.941Z,9.00
2023-01-19T00:05:07.095Z,10.93
2023-01-19T00:07:35.081Z,9.83
2023-01-19T00:10:02.893Z,8.13
2023-01-19T00:12:30.653Z,12.90
2023-01-19T00:14:59.887Z,9.20
2023-01-19T00:17:27.895Z,8.33
2023-01-19T00:19:55.605Z,13.07
2023-01-19T00:22:23.622Z,8.93
2023-01-19T00:24:51.557Z,11.50
2023-01-19T00:27:19.275Z,10.93
2023-01-19T00:29:47.998Z,6.93
2023-01-19T00:32:18.178Z,10.67
2023-01-19T00:34:49.679Z,6.22
2023-01-19T00:37:18.288Z,9.17
2023-01-19T00:39:46.012Z,8.13
2023-01-19T00:42:31.435Z,10.93
2023-01-19T00:44:59.415Z,11.67
2023-01-19T00:47:28.540Z,5.33
2023-01-19T00:49:56.370Z,8.87
2023-01-19T00:52:24.211Z,12.50
2023-01-19T00:54:51.920Z,5.73
2023-01-19T00:57:20.347Z,6.33
2023-01-19T00:59:48.103Z,10.77
2023-01-19T01:02:16.299Z,9.67
2023-01-19T01:04:45.719Z,5.37
2023-01-19T01:07:13.490Z,7.30
2023-01-19T01:09:41.248Z,6.87
2023-01-19T01:12:09.392Z,9.00
2023-01-19T01:14:37.213Z,9.63
2023-01-19T01:17:04.998Z,7.50
2023-01-19T01:19:33.254Z,7.03
2023-01-19T01:22:03.061Z,6.07
2023-01-19T01:24:30.998Z,6.07
2023-01-19T01:26:58.889Z,7.03
2023-01-19T01:29:26.661Z,6.97
2023-01-19T01:31:54.569Z,9.23
2023-01-19T01:34:22.731Z,5.43
2023-01-19T01:36:50.497Z,8.70
2023-01-19T01:39:19.637Z,10.40
2023-01-19T01:41:47.685Z,8.80
2023-01-19T01:44:49.814Z,6.70
2023-01-19T01:47:23.600Z,7.97
2023-01-19T01:49:55.062Z,8.80
2023-01-19T01:52:26.172Z,12.23
2023-01-19T01:54:55.906Z,10.07
2023-01-19T01:57:27.829Z,6.63
2023-01-19T01:59:58.495Z,6.87
2023-01-19T02:02:48.271Z,11.47
2023-01-19T02:05:20.657Z,10.02
2023-01-19T02:08:12.855Z,9.87
2023-01-19T02:11:00.206Z,10.67
2023-01-19T02:13:30.288Z,5.23
2023-01-19T02:16:00.906Z,7.88
2023-01-19T02:18:30.618Z,8.27
2023-01-19T02:21:09.465Z,12.70
2023-01-19T02:23:44.893Z,7.90
2023-01-19T02:26:16.142Z,10.17
2023-01-19T02:28:48.426Z,7.00
2023-01-19T02:31:16.213Z,9.50
2023-01-19T02:33:44.652Z,6.40
2023-01-19T02:36:15.835Z,6.53
2023-01-19T02:38:46.992Z,10.53
2023-01-19T02:41:19.906Z,13.43
2023-01-19T02:43:50.734Z,9.43
2023-01-19T02:46:18.660Z,11.00
2023-01-19T02:48:46.610Z,5.87
2023-01-19T02:51:18.680Z,9.83
2023-01-19T02:54:28.267Z,10.53
2023-01-19T02:57:11.713Z,13.70
2023-01-19T02:59:55.936Z,4.47
2023-01-19T03:02:39.943Z,8.83
2023-01-19T03:05:18.903Z,7.63
2023-01-19T03:07:54.630Z,8.50
2023-01-19T03:10:33.266Z,6.83
2023-01-19T03:13:11.488Z,7.00
2023-01-19T03:15:47.638Z,10.00
2023-01-19T03:18:19.838Z,8.37
2023-01-19T03:20:50.475Z,7.80
2023-01-19T03:23:20.805Z,10.90
2023-01-19T03:25:51.387Z,10.77
2023-01-19T03:28:24.025Z,12.10
2023-01-19T03:30:57.510Z,9.00
2023-01-19T03:33:29.662Z,7.37
2023-01-19T03:36:03.824Z,7.83
2023-01-19T03:38:36.156Z,6.63
2023-01-19T03:41:08.105Z,12.53
2023-01-19T03:43:40.029Z,7.83
2023-01-19T03:46:11.209Z,11.37
2023-01-19T03:48:39.816Z,5.17
2023-01-19T03:51:10.508Z,9.97
2023-01-19T03:53:38.410Z,7.17
2023-01-19T03:56:07.639Z,8.13
2023-01-19T03:58:37.527Z,7.33
2023-01-19T04:01:05.541Z,6.78
2023-01-19T04:03:33.615Z,10.33
2023-01-19T04:06:01.512Z,14.43
2023-01-19T04:08:29.515Z,8.37
2023-01-19T04:10:58.734Z,9.03
2023-01-19T04:13:28.876Z,13.97
2023-01-19T04:16:00.972Z,7.60
2023-01-19T04:18:28.850Z,6.90
2023-01-19T04:20:56.657Z,10.07
2023-01-19T04:23:24.470Z,9.40
2023-01-19T04:25:57.736Z,7.43
2023-01-19T04:28:25.698Z,6.30
2023-01-19T04:30:53.721Z,6.20
2023-01-19T04:33:24.702Z,7.23
2023-01-19T04:35:54.581Z,8.20
2023-01-19T04:38:23.141Z,5.10
2023-01-19T04:40:51.220Z,6.30
2023-01-19T04:43:18.996Z,10.13
2023-01-19T04:45:47.099Z,7.23
2023-01-19T04:48:15.439Z,7.03
2023-01-19T04:50:44.532Z,8.20
2023-01-19T04:53:13.703Z,7.90
2023-01-19T04:55:42.194Z,7.90
2023-01-19T04:58:09.942Z,3.40
2023-01-19T05:00:38.117Z,10.53
2023-01-19T05:03:06.272Z,11.33
2023-01-19T05:05:34.286Z,6.97
2023-01-19T05:08:03.525Z,4.87
2023-01-19T05:10:31.572Z,7.90
2023-01-19T05:12:59.614Z,7.10
2023-01-19T05:15:27.760Z,9.80
2023-01-19T05:17:58.071Z,10.77
2023-01-19T05:20:26.434Z,8.23
2023-01-19T05:22:54.465Z,8.57
2023-01-19T05:25:23.741Z,4.67
2023-01-19T05:27:51.674Z,10.73
2023-01-19T05:30:20.233Z,7.53
2023-01-19T05:32:48.124Z,9.70
2023-01-19T05:35:20.178Z,8.57
2023-01-19T05:37:52.904Z,6.47
2023-01-19T05:40:20.856Z,8.43
2023-01-19T05:42:50.028Z,11.57
2023-01-19T05:45:18.048Z,10.00
2023-01-19T05:47:45.876Z,9.07
2023-01-19T05:50:13.617Z,7.17
2023-01-19T05:52:41.664Z,5.40
2023-01-19T05:55:11.211Z,8.30
2023-01-19T05:57:38.954Z,10.13
2023-01-19T06:00:09.862Z,12.53
2023-01-19T06:02:37.909Z,8.10
2023-01-19T06:05:06.328Z,10.80
2023-01-19T06:07:34.356Z,7.70
2023-01-19T06:10:02.184Z,13.33
2023-01-19T06:12:30.027Z,9.07
2023-01-19T06:14:57.977Z,11.80
2023-01-19T06:17:27.174Z,12.83
2023-01-19T06:19:55.036Z,8.87
2023-01-19T06:22:23.440Z,9.03
2023-01-19T06:24:51.932Z,5.47
2023-01-19T06:27:19.799Z,12.17
2023-01-19T06:29:47.756Z,7.00
2023-01-19T06:32:15.589Z,14.57
2023-01-19T06:34:44.738Z,7.90
2023-01-19T06:37:13.197Z,10.37
2023-01-19T06:39:42.315Z,5.43
2023-01-19T06:42:10.112Z,10.60
2023-01-19T06:44:38.107Z,13.77
2023-01-19T06:47:15.341Z,7.23
2023-01-19T06:49:45.524Z,11.83
2023-01-19T06:52:15.975Z,11.43
2023-01-19T06:54:45.397Z,13.80
2023-01-19T06:57:13.640Z,6.73
2023-01-19T06:59:41.413Z,11.90
2023-01-19T07:02:26.542Z,9.40
2023-01-19T07:04:57.577Z,12.20
2023-01-19T07:07:25.949Z,9.05
2023-01-19T07:09:54.447Z,12.33
2023-01-19T07:12:22.364Z,10.97
2023-01-19T07:14:50.504Z,18.57
2023-01-19T07:17:18.695Z,9.33
2023-01-19T07:19:47.538Z,19.67
2023-01-19T07:22:16.675Z,15.90
2023-01-19T07:24:44.967Z,11.50
2023-01-19T07:27:13.319Z,14.87
2023-01-19T07:29:41.055Z,11.37
2023-01-19T07:32:09.203Z,15.33
2023-01-19T07:34:37.145Z,10.00
2023-01-19T07:37:05.244Z,9.73
2023-01-19T07:39:36.639Z,15.20
2023-01-19T07:42:04.904Z,16.20
2023-01-19T07:44:32.645Z,12.57
2023-01-19T07:47:00.506Z,11.40
2023-01-19T07:49:28.359Z,14.17
2023-01-19T07:51:57.057Z,10.33
2023-01-19T07:54:25.090Z,16.50
2023-01-19T07:56:56.171Z,11.07
2023-01-19T07:59:24.299Z,16.27
2023-01-19T08:01:53.428Z,11.97
2023-01-19T08:04:21.808Z,16.80
2023-01-19T08:06:49.700Z,13.63
2023-01-19T08:09:17.859Z,15.07
2023-01-19T08:11:45.920Z,15.40
2023-01-19T08:14:14.978Z,19.77
2023-01-19T08:16:42.705Z,14.63
2023-01-19T08:19:10.622Z,12.90
2023-01-19T08:21:38.981Z,19.80
2023-01-19T08:24:07.376Z,14.67
2023-01-19T08:26:36.773Z,13.47
2023-01-19T08:29:06.787Z,14.63
2023-01-19T08:31:36.333Z,14.88
2023-01-19T08:34:04.324Z,14.77
2023-01-19T08:36:32.185Z,11.93
2023-01-19T08:39:00.044Z,11.80
2023-01-19T08:41:27.945Z,15.50
2023-01-19T08:43:55.688Z,17.73
2023-01-19T08:46:23.608Z,10.10
2023-01-19T08:48:52.837Z,11.07
2023-01-19T08:51:20.636Z,12.03
2023-01-19T08:53:48.554Z,11.43
2023-01-19T08:56:16.642Z,12.77
2023-01-19T08:58:53.629Z,10.10
2023-01-19T09:01:31.362Z,9.60
2023-01-19T09:04:00.559Z,10.03
2023-01-19T09:06:28.476Z,10.37
2023-01-19T09:08:57.666Z,7.20
2023-01-19T09:11:25.482Z,10.97
2023-01-19T09:13:53.238Z,12.37
2023-01-19T09:16:21.663Z,12.57
2023-01-19T09:18:49.421Z,9.17
2023-01-19T09:21:19.278Z,11.00
2023-01-19T09:23:47.379Z,9.48
2023-01-19T09:26:15.153Z,10.73
2023-01-19T09:28:42.914Z,10.67
2023-01-19T09:31:11.121Z,15.17
2023-01-19T09:33:38.990Z,15.10
2023-01-19T09:36:07.430Z,14.83
2023-01-19T09:38:36.834Z,7.73
2023-01-19T09:41:05.990Z,11.73
2023-01-19T09:43:38.547Z,11.63
2023-01-19T09:46:11.799Z,15.07
2023-01-19T09:48:49.042Z,12.20
2023-01-19T09:51:19.632Z,11.33
2023-01-19T09:53:57.080Z,11.87
2023-01-19T09:56:25.536Z,10.50
2023-01-19T09:58:53.448Z,12.70
2023-01-19T10:01:41.512Z,7.27
2023-01-19T10:04:28.416Z,9.83
2023-01-19T10:07:09.872Z,7.50
2023-01-19T10:09:49.843Z,13.27
2023-01-19T10:12:31.864Z,11.02
2023-01-19T10:15:07.027Z,10.83
2023-01-19T10:17:43.428Z,9.40
2023-01-19T10:20:17.984Z,7.27
2023-01-19T10:22:49.936Z,8.30
2023-01-19T10:25:23.785Z,9.67
2023-01-19T10:27:52.223Z,9.27
2023-01-19T10:30:23.680Z,11.43
2023-01-19T10:32:52.515Z,11.47
2023-01-19T10:35:25.436Z,8.63
2023-01-19T10:37:56.417Z,9.57
2023-01-19T10:40:34.283Z,12.00
2023-01-19T10:43:02.531Z,6.70
2023-01-19T10:45:32.854Z,9.67
2023-01-19T10:50:37.159Z,8.60
2023-01-19T10:53:06.751Z,7.60
2023-01-19T10:55:38.535Z,6.75
2023-01-19T10:58:07.435Z,9.37
2023-01-19T11:00:38.253Z,8.17
2023-01-19T11:03:07.157Z,5.40
2023-01-19T11:05:36.785Z,7.83
2023-01-19T11:08:24.147Z,5.85
2023-01-19T11:11:02.366Z,14.93
2023-01-19T11:13:30.213Z,7.40
2023-01-19T11:16:00.233Z,9.60
2023-01-19T11:18:31.138Z,10.35
2023-01-19T11:21:02.255Z,8.83
2023-01-19T11:23:33.764Z,9.03
2023-01-19T11:26:06.818Z,11.07
2023-01-19T11:28:38.421Z,15.63
2023-01-19T11:31:19.163Z,10.53
2023-01-19T11:33:51.231Z,8.97
2023-01-19T11:36:21.162Z,11.47
2023-01-19T11:38:51.561Z,9.63
2023-01-19T11:41:22.882Z,9.45
2023-01-19T11:43:54.618Z,9.07
2023-01-19T11:46:25.045Z,11.40
2023-01-19T11:51:31.160Z,8.60
2023-01-19T11:53:59.181Z,10.37
2023-01-19T11:56:30.496Z,9.30
2023-01-19T11:58:58.556Z,10.73
2023-01-19T12:01:31.141Z,10.97
2023-01-19T12:04:05.561Z,10.80
2023-01-19T12:06:37.018Z,10.00
2023-01-19T12:09:12.291Z,10.70
2023-01-19T12:11:45.145Z,11.57
2023-01-19T12:14:23.795Z,14.50
2023-01-19T12:16:53.249Z,7.23
2023-01-19T12:19:26.243Z,7.95
2023-01-19T12:21:54.842Z,9.77
2023-01-19T12:24:32.049Z,10.73
2023-01-19T12:27:06.042Z,8.93
2023-01-19T12:29:36.401Z,8.07
2023-01-19T12:34:48.214Z,7.00
2023-01-19T12:37:45.380Z,6.83
2023-01-19T12:40:24.925Z,7.30
2023-01-19T12:42:59.843Z,4.93
2023-01-19T12:45:32.206Z,6.13
2023-01-19T12:48:02.085Z,5.53
2023-01-19T12:50:38.546Z,6.05
2023-01-19T12:53:17.153Z,4.73
2023-01-19T12:55:46.858Z,4.97
2023-01-19T12:58:19.230Z,4.35
2023-01-19T13:00:49.327Z,8.10
2023-01-19T13:03:46.710Z,3.47
2023-01-19T13:06:14.565Z,6.90
2023-01-19T13:09:00.460Z,5.83
2023-01-19T13:11:33.305Z,4.40
2023-01-19T13:14:34.660Z,7.07
2023-01-19T13:17:29.491Z,6.07
2023-01-19T13:20:19.480Z,6.60
2023-01-19T13:23:16.028Z,6.57
2023-01-19T13:25:48.901Z,8.00
2023-01-19T13:28:19.491Z,9.67
2023-01-19T13:30:58.062Z,10.90
2023-01-19T13:33:31.126Z,13.80
2023-01-19T13:35:59.901Z,15.07
2023-01-19T13:38:28.949Z,17.40
2023-01-19T13:41:00.557Z,13.67
2023-01-19T13:43:38.747Z,14.27
2023-01-19T13:46:07.203Z,10.73
2023-01-19T13:48:36.689Z,12.10
2023-01-19T13:51:06.150Z,17.35
2023-01-19T13:53:34.471Z,18.87
2023-01-19T13:56:20.745Z,23.53
2023-01-19T13:59:00.252Z,12.70
2023-01-19T14:01:29.809Z,12.70
2023-01-19T14:03:59.962Z,14.35
2023-01-19T14:06:37.961Z,10.98
2023-01-19T14:09:16.590Z,12.53
2023-01-19T14:11:45.731Z,9.87
2023-01-19T14:14:24.430Z,10.07
2023-01-19T14:16:52.365Z,14.03
2023-01-19T14:19:21.703Z,7.80
2023-01-19T14:22:00.562Z,12.70
2023-01-19T14:24:32.051Z,16.83
2023-01-19T14:27:20.465Z,35.40
2023-01-19T14:29:50.719Z,26.77
2023-01-19T14:32:20.707Z,23.50
2023-01-19T14:34:51.929Z,16.67
2023-01-19T14:38:07.353Z,12.23
2023-01-19T14:40:39.300Z,17.77
2023-01-19T14:43:07.296Z,14.60
2023-01-19T14:45:37.714Z,17.37
2023-01-19T14:48:16.310Z,20.55
2023-01-19T14:51:02.071Z,15.05
2023-01-19T14:53:37.231Z,18.77
2023-01-19T14:56:07.272Z,16.23
2023-01-19T14:58:36.491Z,17.17
2023-01-19T15:01:06.581Z,19.00
2023-01-19T15:03:44.157Z,13.70
2023-01-19T15:06:17.378Z,25.30
2023-01-19T15:08:46.476Z,32.57
2023-01-19T15:11:23.137Z,14.03
2023-01-19T15:13:51.830Z,19.43
2023-01-19T15:16:20.067Z,14.73
2023-01-19T15:18:47.980Z,14.37
2023-01-19T15:21:20.485Z,14.43
2023-01-19T15:23:48.568Z,16.03
2023-01-19T15:26:18.542Z,14.13
2023-01-19T15:28:47.041Z,21.67
2023-01-19T15:31:16.931Z,21.33
2023-01-19T15:33:45.568Z,23.23
2023-01-19T15:36:16.936Z,24.73
2023-01-19T15:38:47.749Z,36.87
2023-01-19T15:41:16.502Z,23.50
2023-01-19T15:43:44.277Z,18.27
2023-01-19T15:46:15.622Z,15.03
2023-01-19T15:48:43.473Z,14.07
2023-01-19T15:51:13.640Z,24.60
2023-01-19T15:53:41.482Z,18.35
2023-01-19T15:56:16.287Z,19.83
2023-01-19T15:58:44.807Z,15.07
2023-01-19T16:01:14.124Z,14.17
2023-01-19T16:03:42.277Z,16.07
2023-01-19T16:06:11.261Z,15.30
2023-01-19T16:08:39.408Z,18.70
2023-01-19T16:11:08.054Z,17.27
2023-01-19T16:13:37.330Z,19.13
2023-01-19T16:16:05.765Z,19.30
2023-01-19T16:18:33.741Z,15.73
2023-01-19T16:21:01.983Z,19.70
2023-01-19T16:23:29.837Z,23.27
2023-01-19T16:25:59.176Z,21.87
2023-01-19T16:28:28.186Z,26.63
2023-01-19T16:30:57.567Z,23.60
2023-01-19T16:33:25.357Z,20.17
2023-01-19T16:35:53.870Z,18.13
2023-01-19T16:38:23.208Z,20.13
2023-01-19T16:40:50.958Z,21.80
2023-01-19T16:43:18.850Z,15.30
2023-01-19T16:46:02.671Z,21.60
2023-01-19T16:48:32.347Z,17.23
2023-01-19T16:51:01.927Z,15.25
2023-01-19T16:53:30.380Z,12.02
2023-01-19T16:55:58.297Z,15.77
2023-01-19T16:58:26.293Z,15.73
2023-01-19T17:00:54.102Z,15.77
2023-01-19T17:03:23.645Z,16.13
2023-01-19T17:05:52.812Z,21.23
2023-01-19T17:08:21.871Z,18.27
2023-01-19T17:10:49.803Z,19.10
2023-01-19T17:13:17.682Z,18.20
2023-01-19T17:15:45.457Z,28.97
2023-01-19T17:18:13.407Z,26.13
2023-01-19T17:20:42.675Z,24.13
2023-01-19T17:23:10.428Z,24.97
2023-01-19T17:25:38.359Z,18.40
2023-01-19T17:28:06.231Z,22.93
2023-01-19T17:30:34.406Z,17.37
2023-01-19T17:33:02.470Z,18.73
2023-01-19T17:35:30.280Z,23.73
2023-01-19T17:37:59.527Z,20.20
2023-01-19T17:40:27.506Z,26.63
2023-01-19T17:42:55.277Z,25.77
2023-01-19T17:45:23.205Z,28.37
2023-01-19T17:47:51.512Z,33.97
2023-01-19T17:50:19.473Z,35.17
2023-01-19T17:52:47.671Z,30.60
2023-01-19T17:55:18.490Z,33.00
2023-01-19T17:57:46.530Z,39.30
2023-01-19T18:00:15.750Z,40.90
2023-01-19T18:02:43.642Z,51.77
2023-01-19T18:05:12.671Z,48.57
2023-01-19T18:07:40.733Z,48.57
2023-01-19T18:10:10.359Z,44.93
2023-01-19T18:12:39.661Z,49.97
2023-01-19T18:15:09.780Z,56.43
2023-01-19T18:17:37.636Z,74.38
2023-01-19T18:20:06.068Z,70.33
2023-01-19T18:22:33.936Z,56.30
2023-01-19T18:25:01.786Z,37.90
2023-01-19T18:27:30.323Z,35.47
2023-01-19T18:29:59.743Z,65.33
2023-01-19T18:32:27.613Z,74.20
2023-01-19T18:34:55.344Z,48.73
2023-01-19T18:37:23.215Z,46.23
2023-01-19T18:39:51.103Z,43.60
2023-01-19T18:42:18.897Z,44.70
2023-01-19T18:44:46.723Z,37.30
2023-01-19T18:47:15.932Z,41.97
2023-01-19T18:49:43.668Z,38.53
2023-01-19T18:52:11.553Z,34.03
2023-01-19T18:54:39.443Z,39.10
2023-01-19T18:57:07.185Z,36.93
2023-01-19T18:59:35.147Z,35.80
2023-01-19T19:02:05.279Z,43.97
2023-01-19T19:04:34.499Z,49.63
2023-01-19T19:07:02.409Z,37.13
2023-01-19T19:09:30.465Z,35.30
2023-01-19T19:11:58.305Z,40.33
2023-01-19T19:14:26.597Z,35.80
2023-01-19T19:16:54.513Z,41.80
2023-01-19T19:19:22.257Z,38.60
2023-01-19T19:21:52.154Z,35.07
2023-01-19T19:24:19.945Z,35.08
2023-01-19T19:26:47.687Z,36.03
2023-01-19T19:29:15.671Z,46.07
2023-01-19T19:31:43.748Z,39.77
2023-01-19T19:34:12.445Z,43.87
2023-01-19T19:36:42.029Z,37.43
2023-01-19T19:39:11.535Z,34.33
2023-01-19T19:41:39.305Z,37.60
2023-01-19T19:44:26.108Z,42.27
2023-01-19T19:46:54.006Z,41.20
2023-01-19T19:49:21.919Z,30.53
2023-01-19T19:51:49.835Z,34.20
2023-01-19T19:54:18.964Z,37.03
2023-01-19T19:56:48.345Z,39.50
2023-01-19T19:59:16.245Z,32.38
2023-01-19T20:01:45.249Z,33.80
2023-01-19T20:04:14.741Z,35.63
2023-01-19T20:06:44.988Z,35.63
2023-01-19T20:09:14.191Z,35.10
2023-01-19T20:11:44.576Z,34.97
2023-01-19T20:16:41.470Z,31.77
2023-01-19T20:19:09.583Z,33.00
2023-01-19T20:21:40.135Z,31.87
2023-01-19T20:24:10.082Z,26.70
2023-01-19T20:26:42.313Z,28.27
2023-01-19T20:29:11.939Z,30.37
2023-01-19T20:31:42.715Z,32.60
2023-01-19T20:34:12.422Z,28.10
2023-01-19T20:36:41.199Z,24.67
2023-01-19T20:39:11.100Z,29.77
2023-01-19T20:41:45.089Z,25.77
2023-01-19T20:44:16.351Z,30.27
2023-01-19T20:46:44.232Z,29.73
2023-01-19T20:49:12.180Z,27.23
2023-01-19T20:51:43.328Z,26.70
2023-01-19T20:54:11.482Z,27.30
2023-01-19T20:56:41.424Z,24.57
2023-01-19T20:59:09.547Z,25.92
2023-01-19T21:01:39.670Z,21.67
2023-01-19T21:04:07.810Z,21.08
2023-01-19T21:06:35.592Z,25.47
2023-01-19T21:09:03.637Z,29.40
2023-01-19T21:11:31.856Z,24.33
2023-01-19T21:13:59.828Z,25.47
2023-01-19T21:16:30.101Z,25.17
2023-01-19T21:18:59.627Z,20.85
2023-01-19T21:21:31.155Z,23.70
2023-01-19T21:24:01.435Z,27.40
2023-01-19T21:26:30.945Z,22.45
2023-01-19T21:28:59.286Z,24.42
2023-01-19T21:31:28.255Z,20.63
2023-01-19T21:33:56.682Z,22.17
2023-01-19T21:36:26.715Z,21.63
2023-01-19T21:38:55.801Z,24.30
2023-01-19T21:41:23.672Z,21.00
2023-01-19T21:43:51.413Z,15.37
2023-01-19T21:46:21.166Z,18.33
2023-01-19T21:48:49.445Z,22.65
2023-01-19T21:51:17.556Z,20.00
2023-01-19T21:53:47.236Z,20.13
2023-01-19T21:56:16.811Z,18.30
2023-01-19T21:58:48.410Z,18.27
2023-01-19T22:01:16.210Z,19.30
2023-01-19T22:03:44.495Z,19.10
2023-01-19T22:06:14.302Z,17.13
2023-01-19T22:08:42.396Z,15.02
2023-01-19T22:11:13.452Z,16.03
2023-01-19T22:13:42.054Z,17.43
2023-01-19T22:16:12.344Z,20.20
2023-01-19T22:18:41.913Z,15.03
2023-01-19T22:21:11.053Z,19.77
2023-01-19T22:23:39.545Z,19.53
2023-01-19T22:26:08.226Z,14.47
2023-01-19T22:28:38.179Z,15.00
2023-01-19T22:31:08.170Z,16.85
2023-01-19T22:33:36.287Z,20.13
2023-01-19T22:36:12.100Z,16.77
2023-01-19T22:38:40.438Z,18.60
2023-01-19T22:41:15.951Z,17.77
2023-01-19T22:43:45.923Z,16.63
2023-01-19T22:46:14.338Z,15.43
2023-01-19T22:48:42.327Z,18.20
2023-01-19T22:51:10.262Z,15.93
2023-01-19T22:53:38.065Z,20.03
2023-01-19T22:56:13.810Z,19.10
2023-01-19T22:58:44.204Z,21.13
2023-01-19T23:03:42.429Z,17.15
2023-01-19T23:06:12.254Z,15.77
2023-01-19T23:08:40.881Z,21.20
2023-01-19T23:11:11.581Z,16.27
2023-01-19T23:13:39.733Z,17.40
2023-01-19T23:16:08.730Z,17.33
2023-01-19T23:18:38.168Z,18.93
2023-01-19T23:21:07.750Z,20.75
2023-01-19T23:23:36.260Z,20.10
2023-01-19T23:26:05.747Z,15.57
2023-01-19T23:28:34.512Z,14.70
2023-01-19T23:31:02.445Z,16.60
2023-01-19T23:33:30.215Z,15.83
2023-01-19T23:35:59.321Z,14.30
2023-01-19T23:38:27.049Z,13.33
2023-01-19T23:40:58.086Z,14.13
2023-01-19T23:43:25.860Z,15.37
2023-01-19T23:45:53.744Z,15.63
2023-01-19T23:48:21.776Z,17.73
2023-01-19T23:50:49.503Z,17.60
2023-01-19T23:53:18.627Z,13.83
2023-01-19T23:55:46.697Z,15.73
2023-01-19T23:58:14.420Z,16.00
